Latest Weather Observations for Groote Eylandt Airport

IDD60801

Issued at 7:11 pm CST Sunday 19 August 2018 (issued every 10 minutes, with the page automatically refreshed every 10 minutes)

About weather observations | Map of weather stations | Latest weather observations for NT | Other Formats
Station Details ID: 014518 Name: GROOTE EYLANDT AIRPORT Lat: -13.97 Lon: 136.46 Height: 13.7 m
Data from the previous 72 hours. | See also: Recent months at Groote Eylandt Airport
Date/Time
CST
Temp
°C
App
Temp
°C
Dew
Point
°C
Rel
Hum
%
Delta-T
°C
Wind Press
QNH
hPa
Press
MSL
hPa
Rain since
9am
mm
Dir  Spd
km/h
Gust
km/h
Spd
kts
Gust
kts
19/07:00pm 25.1 21.2 7.3 32 9.4 SE 17 30 9 16 1015.7 1015.7 0.0
19/06:30pm 25.2 22.1 8.7 35 8.9 SE 15 30 8 16 1015.6 1015.6 0.0
19/06:00pm 25.2 22.6 10.6 40 8.1 SE 15 28 8 15 1015.6 1015.6 0.0
19/05:30pm 26.3 23.2 11.6 40 8.4 SE 19 39 10 21 1015.3 1015.3 0.0
19/05:00pm 27.0 24.2 11.5 38 8.9 SE 17 28 9 15 1014.9 1014.9 0.0
19/04:30pm 27.1 23.8 11.6 38 8.9 SE 20 33 11 18 1014.8 1014.8 0.0
19/04:00pm 28.1 23.7 10.3 33 10.0 SE 24 41 13 22 1014.7 1014.7 0.0
19/03:30pm 29.1 24.8 10.7 32 10.5 SE 24 41 13 22 1014.6 1014.6 0.0
19/03:18pm 28.8 25.2 10.5 32 10.4 SE 20 37 11 20 1014.7 1014.7 0.0
19/03:07pm 28.6 24.4 9.8 31 10.5 ESE 22 41 12 22 1014.7 1014.7 0.0
19/03:00pm 28.8 23.9 10.0 31 10.6 SE 26 41 14 22 1014.7 1014.7 0.0
19/02:46pm 28.6 23.1 9.3 30 10.7 SE 28 50 15 27 1014.8 1014.8 0.0
19/02:38pm 29.2 24.9 10.8 32 10.5 SE 24 54 13 29 1014.8 1014.8 0.0
19/02:30pm 28.5 23.3 10.2 32 10.3 ESE 28 54 15 29 1015.0 1015.0 0.0
19/02:16pm 29.2 24.3 11.3 33 10.3 ESE 28 46 15 25 1015.0 1015.0 0.0
19/02:15pm 29.2 24.3 11.3 33 10.3 ESE 28 43 15 23 1015.1 1015.1 0.0
19/02:00pm 29.4 24.4 11.0 32 10.5 ESE 28 44 15 24 1015.1 1015.1 0.0
19/01:35pm 29.4 23.9 10.5 31 10.7 ESE 30 48 16 26 1015.4 1015.4 0.0
19/01:30pm 29.5 23.4 9.6 29 11.1 ESE 32 48 17 26 1015.4 1015.4 0.0
19/01:03pm 29.6 24.0 8.6 27 11.6 ESE 28 46 15 25 1015.5 1015.5 0.0
19/01:00pm 29.3 24.0 8.4 27 11.5 ESE 26 46 14 25 1015.6 1015.6 0.0
19/12:44pm 29.5 23.7 8.0 26 11.7 ESE 28 46 15 25 1015.7 1015.7 0.0
19/12:30pm 30.4 24.6 9.3 27 11.8 ESE 30 44 16 24 1015.7 1015.7 0.0
19/12:08pm 30.2 25.0 10.2 29 11.4 ESE 28 46 15 25 1016.0 1016.0 0.0
19/12:00pm 29.7 25.8 10.8 31 10.8 SE 22 37 12 20 1016.1 1016.1 0.0
19/11:30am 30.1 25.7 11.6 32 10.7 ESE 26 35 14 19 1016.2 1016.2 0.0
19/11:00am 29.8 25.2 10.9 31 10.8 ESE 26 44 14 24 1016.4 1016.4 0.0
19/10:30am 30.2 26.1 10.2 29 11.3 ESE 22 33 12 18 1016.5 1016.5 0.0
19/10:00am 29.4 26.1 11.5 33 10.3 ESE 20 30 11 16 1016.6 1016.6 0.0
19/09:30am 27.9 27.0 14.9 45 7.9 SE 13 28 7 15 1016.5 1016.5 0.0
19/09:00am 26.2 26.5 17.8 60 5.3 SE 13 28 7 15 1016.3 1016.3 0.0
19/08:30am 24.4 26.2 20.3 78 2.7 S 11 19 6 10 1016.1 1016.1 0.0
19/08:00am 21.2 23.5 19.8 92 0.9 S 7 15 4 8 1016.0 1016.0 0.0
19/07:30am 18.5 20.9 18.0 97 0.3 S 2 6 1 3 1015.9 1015.9 0.0
19/07:00am 15.8 17.4 14.8 94 0.6 CALM 0 9 0 5 1015.2 1015.2 0.0
19/06:30am 15.7 17.2 14.6 93 0.6 CALM 0 0 0 0 1014.8 1014.8 0.0
19/06:00am 15.8 17.3 14.7 93 0.6 CALM 0 0 0 0 1014.3 1014.2 0.0
19/05:30am 15.7 17.2 14.7 94 0.6 CALM 0 0 0 0 1013.9 1013.8 0.0
19/05:00am 15.9 16.7 14.9 94 0.6 SE 4 7 2 4 1013.6 1013.5 0.0
19/04:30am 16.0 17.7 15.2 95 0.5 CALM 0 0 0 0 1013.5 1013.4 0.0
19/04:16am 16.1 17.8 15.3 95 0.5 CALM 0 0 0 0 1013.5 1013.4 0.0
19/04:00am 16.2 18.0 15.4 95 0.5 CALM 0 0 0 0 1013.5 1013.4 0.0
19/03:30am 16.4 17.0 15.4 94 0.6 SSE 6 7 3 4 1013.6 1013.5 0.0
19/03:22am 16.3 16.9 15.2 93 0.6 ESE 6 7 3 4 1013.6 1013.5 0.0
19/03:00am 16.8 18.7 15.7 93 0.6 CALM 0 0 0 0 1013.7 1013.6 0.0
19/02:30am 17.1 18.9 15.6 91 0.9 CALM 0 0 0 0 1014.0 1013.9 0.0
19/02:00am 18.1 20.4 16.8 92 0.8 CALM 0 0 0 0 1014.3 1014.2 0.0
19/01:30am 18.1 20.3 16.6 91 0.9 CALM 0 0 0 0 1014.4 1014.3 0.0
19/01:28am 18.1 20.3 16.4 90 1.0 CALM 0 0 0 0 1014.4 1014.3 0.0
19/01:09am 18.5 20.8 16.8 90 1.0 CALM 0 0 0 0 1014.6 1014.6 0.0
19/01:00am 18.7 21.1 17.0 90 1.0 CALM 0 0 0 0 1014.7 1014.7 0.0
19/12:59am 18.7 21.1 17.0 90 1.0 CALM 0 0 0 0 1014.7 1014.7 0.0
19/12:30am 19.1 21.7 17.6 91 0.9 CALM 0 0 0 0 1015.0 1015.0 0.0
19/12:00am 19.4 22.1 17.7 90 1.0 CALM 0 0 0 0 1015.2 1015.2 0.0
 
Date/Time
CST
Temp
°C
App
Temp
°C
Dew
Point
°C
Rel
Hum
%
Delta-T
°C
Wind Press
QNH
hPa
Press
MSL
hPa
Rain since
9am
mm
Dir  Spd
km/h
Gust
km/h
Spd
kts
Gust
kts
18/11:56pm 19.5 22.2 17.8 90 1.0 CALM 0 0 0 0 1015.3 1015.3 0.0
18/11:34pm 19.7 22.7 18.4 92 0.8 CALM 0 0 0 0 1015.4 1015.4 0.0
18/11:30pm 19.5 22.4 18.2 92 0.8 CALM 0 0 0 0 1015.4 1015.4 0.0
18/11:00pm 19.3 21.9 17.4 89 1.2 CALM 0 4 0 2 1015.4 1015.4 0.0
18/10:30pm 19.4 20.9 17.7 90 1.0 E 6 6 3 3 1015.4 1015.4 0.0
18/10:19pm 19.4 20.9 17.5 89 1.2 E 6 7 3 4 1015.4 1015.4 0.0
18/10:18pm 19.5 21.0 17.6 89 1.2 E 6 7 3 4 1015.4 1015.4 0.0
18/10:00pm 19.8 22.2 17.9 89 1.2 E 2 7 1 4 1015.4 1015.4 0.0
18/09:30pm 20.8 23.8 18.4 86 1.5 CALM 0 0 0 0 1015.2 1015.2 0.0
18/09:03pm 21.7 24.7 18.5 82 2.0 CALM 0 0 0 0 1015.1 1015.1 0.0
18/09:00pm 21.8 24.9 18.6 82 2.0 CALM 0 0 0 0 1015.1 1015.1 0.0
18/08:30pm 22.5 24.6 18.9 80 2.3 E 6 7 3 4 1015.0 1015.0 0.0
18/08:00pm 23.5 25.4 19.0 76 2.9 SE 7 9 4 5 1014.7 1014.7 0.0
18/07:30pm 24.1 26.3 19.2 74 3.1 SE 6 9 3 5 1014.3 1014.2 0.0
18/07:00pm 24.9 27.1 19.3 71 3.6 SE 6 9 3 5 1014.2 1014.1 0.0
18/06:30pm 25.8 27.5 19.4 67 4.1 ESE 9 15 5 8 1014.0 1013.9 0.0
18/06:00pm 26.6 27.0 19.0 63 4.9 ESE 15 22 8 12 1013.7 1013.6 0.0
18/05:30pm 27.2 28.1 18.5 59 5.6 ESE 11 19 6 10 1013.4 1013.3 0.0
18/05:00pm 26.9 27.3 18.2 59 5.5 ESE 13 17 7 9 1013.1 1013.0 0.0
18/04:30pm 27.6 27.4 18.6 58 5.8 E 17 20 9 11 1012.9 1012.8 0.0
18/04:00pm 28.1 28.1 18.2 55 6.3 ENE 15 26 8 14 1012.6 1012.5 0.0
18/03:30pm 28.2 28.8 17.7 53 6.6 WNW 11 17 6 9 1012.5 1012.4 0.0
18/03:00pm 27.7 28.4 20.5 65 4.7 WNW 17 26 9 14 1012.6 1012.5 0.0
18/02:30pm 28.3 28.7 20.6 63 5.1 WNW 19 26 10 14 1012.7 1012.6 0.0
18/02:00pm 27.0 27.7 19.6 64 4.8 WNW 15 20 8 11 1012.9 1012.8 0.0
18/01:30pm 29.2 29.1 16.0 44 8.2 E 11 19 6 10 1013.2 1013.1 0.0
18/01:00pm 28.6 27.8 16.2 47 7.7 ESE 15 20 8 11 1013.6 1013.5 0.0
18/12:30pm 29.4 28.0 16.6 46 8.0 E 19 30 10 16 1014.1 1014.0 0.0
18/12:00pm 27.8 27.3 17.0 51 6.8 ESE 15 20 8 11 1014.6 1014.6 0.0
18/11:30am 28.3 28.9 17.8 53 6.7 SE 11 17 6 9 1015.0 1015.0 0.0
18/11:00am 27.6 29.2 19.1 59 5.5 SSE 9 17 5 9 1015.3 1015.3 0.0
18/10:30am 27.2 28.7 19.0 61 5.3 ESE 9 15 5 8 1015.7 1015.7 0.0
18/10:00am 26.3 28.3 19.2 65 4.6 S 7 11 4 6 1016.0 1016.0 0.0
18/09:30am 26.1 28.1 19.2 65 4.4 ESE 7 15 4 8 1016.0 1016.0 0.0
18/09:00am 24.9 27.2 19.5 72 3.5 S 6 11 3 6 1015.6 1015.6 0.0
18/08:30am 23.6 26.5 19.1 76 2.9 ESE 2 7 1 4 1015.5 1015.5 0.0
18/08:00am 19.9 21.4 17.5 86 1.5 E 6 7 3 4 1015.2 1015.2 0.0
18/07:30am 16.5 17.9 14.5 88 1.1 CALM 0 0 0 0 1014.8 1014.8 0.0
18/07:00am 14.8 15.9 13.5 92 0.7 CALM 0 0 0 0 1014.4 1014.3 0.0
18/06:30am 14.4 15.0 13.0 91 0.8 E 2 7 1 4 1014.1 1014.0 0.0
18/06:00am 14.7 14.3 13.1 90 0.9 E 7 7 4 4 1013.7 1013.6 0.0
18/05:30am 14.8 15.4 13.0 89 1.0 E 2 7 1 4 1013.4 1013.3 0.0
18/05:00am 15.0 16.1 13.5 91 0.8 CALM 0 0 0 0 1013.2 1013.1 0.0
18/04:30am 15.1 16.2 13.6 91 0.8 CALM 0 0 0 0 1013.0 1012.9 0.0
18/04:00am 15.3 16.5 13.7 90 0.9 CALM 0 0 0 0 1013.0 1012.9 0.0
18/03:30am 15.2 16.4 13.7 91 0.8 CALM 0 6 0 3 1012.9 1012.8 0.0
18/03:00am 15.3 15.2 13.3 88 1.1 E 6 7 3 4 1012.9 1012.8 0.0
18/02:30am 15.5 15.4 13.3 87 1.2 E 6 7 3 4 1013.1 1013.0 0.0
18/02:00am 15.8 15.6 13.6 87 1.2 E 7 9 4 5 1013.2 1013.1 0.0
18/01:30am 15.9 16.4 13.9 88 1.1 ESE 4 6 2 3 1013.5 1013.4 0.0
18/01:00am 16.4 17.7 14.2 87 1.3 CALM 0 0 0 0 1013.8 1013.7 0.0
18/12:30am 16.5 17.8 14.2 86 1.3 CALM 0 0 0 0 1014.0 1013.9 0.0
18/12:00am 16.4 16.5 13.9 85 1.4 ESE 6 7 3 4 1014.0 1013.9 0.0
 
Date/Time
CST
Temp
°C
App
Temp
°C
Dew
Point
°C
Rel
Hum
%
Delta-T
°C
Wind Press
QNH
hPa
Press
MSL
hPa
Rain since
9am
mm
Dir  Spd
km/h
Gust
km/h
Spd
kts
Gust
kts
17/11:30pm 16.5 16.5 13.6 83 1.6 ESE 6 6 3 3 1014.0 1013.9 0.0
17/11:00pm 17.0 17.0 13.7 81 1.9 ESE 6 7 3 4 1014.0 1013.9 0.0
17/10:30pm 16.7 16.8 13.8 83 1.6 ESE 6 7 3 4 1014.0 1013.9 0.0
17/10:00pm 17.2 17.2 13.5 79 2.1 E 6 7 3 4 1014.0 1013.9 0.0
17/09:30pm 18.0 18.0 13.5 75 2.5 ESE 6 7 3 4 1014.0 1013.9 0.0
17/09:00pm 18.8 19.9 13.6 72 3.0 CALM 0 0 0 0 1013.9 1013.8 0.0
17/08:30pm 19.6 20.7 13.5 68 3.5 CALM 0 0 0 0 1013.8 1013.7 0.0
17/08:00pm 20.3 20.3 13.7 66 3.8 SE 6 9 3 5 1013.5 1013.4 0.0
17/07:30pm 21.3 21.1 13.0 59 4.7 E 6 7 3 4 1012.9 1012.8 0.0
17/07:00pm 23.5 23.3 13.1 52 6.0 ENE 6 6 3 3 1012.5 1012.4 0.0
17/06:30pm 25.0 24.8 11.9 44 7.5 ENE 4 7 2 4 1012.0 1011.9 0.0
17/06:00pm 26.2 25.0 11.5 40 8.4 ESE 9 17 5 9 1011.7 1011.6 0.0
17/05:30pm 27.6 25.0 10.8 35 9.5 E 15 19 8 10 1011.4 1011.3 0.0
17/05:00pm 28.2 24.9 9.5 31 10.4 ENE 17 22 9 12 1011.1 1011.0 0.0
17/04:30pm 28.7 25.4 9.4 30 10.7 NE 17 24 9 13 1010.6 1010.5 0.0
17/04:00pm 29.3 25.7 9.9 30 10.9 E 19 28 10 15 1010.3 1010.2 0.0
17/03:30pm 29.8 26.4 9.3 28 11.5 ENE 17 22 9 12 1010.4 1010.3 0.0
17/03:00pm 30.3 26.8 8.7 26 12.0 E 17 26 9 14 1010.6 1010.5 0.0
17/02:30pm 29.8 25.8 8.2 26 11.9 ENE 19 28 10 15 1010.7 1010.6 0.0
17/02:00pm 30.4 26.9 8.7 26 12.0 ENE 17 28 9 15 1010.9 1010.8 0.0
17/01:30pm 29.9 26.8 8.9 27 11.7 ESE 15 22 8 12 1011.4 1011.3 0.0
17/01:00pm 29.2 26.0 8.3 27 11.4 ESE 15 24 8 13 1011.6 1011.5 0.0
17/12:30pm 29.2 25.7 8.8 28 11.3 ESE 17 24 9 13 1012.1 1012.0 0.0
17/12:00pm 29.1 26.1 9.3 29 11.0 ESE 15 28 8 15 1012.4 1012.3 0.0
17/11:30am 29.9 26.9 10.5 30 11.1 E 17 28 9 15 1012.9 1012.8 0.0
17/11:00am 28.5 25.8 11.6 35 9.7 ESE 17 26 9 14 1013.4 1013.3 0.0
17/10:30am 27.5 27.2 15.5 48 7.3 SE 11 24 6 13 1013.9 1013.8 0.0
17/10:00am 26.2 27.0 17.3 58 5.6 S 9 17 5 9 1014.4 1014.3 0.0
17/09:30am 25.4 26.6 19.1 68 4.0 SSE 11 15 6 8 1014.5 1014.4 0.0
17/09:00am 24.5 26.3 19.6 74 3.2 SSE 9 15 5 8 1014.3 1014.2 0.0
17/08:30am 22.5 25.1 19.3 82 2.0 SE 4 6 2 3 1014.2 1014.1 0.0
17/08:00am 20.1 21.7 17.9 87 1.4 SSE 6 7 3 4 1014.0 1013.9 0.0
17/07:30am 16.8 18.2 15.3 91 0.9 ESE 2 7 1 4 1013.9 1013.8 0.0
17/07:00am 14.2 14.1 13.4 95 0.4 SE 6 7 3 4 1013.5 1013.4 0.0
17/06:30am 13.6 14.0 12.5 93 0.6 SE 2 9 1 5 1013.0 1012.9 0.0
17/06:00am 14.1 13.7 13.1 94 0.6 SSE 7 9 4 5 1012.6 1012.5 0.0
17/05:30am 13.7 13.4 12.8 94 0.5 SE 6 7 3 4 1012.3 1012.2 0.0
17/05:00am 14.0 14.9 12.9 93 0.6 CALM 0 0 0 0 1012.1 1012.0 0.0
17/04:30am 14.1 13.9 13.0 93 0.6 ESE 6 7 3 4 1012.0 1011.9 0.0
17/04:00am 14.4 14.3 13.3 93 0.6 E 6 7 3 4 1012.0 1011.9 0.0
17/03:30am 14.5 15.1 13.2 92 0.7 E 2 6 1 3 1012.1 1012.0 0.0
17/03:00am 15.3 15.2 13.8 91 0.8 E 7 9 4 5 1012.2 1012.1 0.0
17/02:30am 16.0 17.3 14.2 89 1.0 CALM 0 0 0 0 1012.3 1012.2 0.0
17/02:00am 16.1 17.7 14.8 92 0.7 CALM 0 0 0 0 1012.6 1012.5 0.0
17/01:30am 16.4 17.6 14.8 90 0.9 E 2 7 1 4 1012.7 1012.6 0.0
17/01:00am 17.0 17.1 15.5 91 0.9 ESE 9 11 5 6 1012.6 1012.5 0.0
17/12:30am 16.8 16.8 15.3 91 0.9 ESE 9 11 5 6 1012.8 1012.7 0.0
17/12:00am 16.9 17.5 15.4 91 0.9 E 6 7 3 4 1013.0 1012.9 0.0
 
Date/Time
CST
Temp
°C
App
Temp
°C
Dew
Point
°C
Rel
Hum
%
Delta-T
°C
Wind Press
QNH
hPa
Press
MSL
hPa
Rain since
9am
mm
Dir  Spd
km/h
Gust
km/h
Spd
kts
Gust
kts
16/11:30pm 17.1 18.8 15.3 89 1.0 CALM 0 0 0 0 1013.2 1013.1 0.0
16/11:00pm 17.4 19.2 15.6 89 1.1 CALM 0 0 0 0 1013.4 1013.3 0.0
16/10:30pm 17.6 18.3 15.6 88 1.2 E 6 7 3 4 1013.6 1013.5 0.0
16/10:00pm 18.0 19.2 16.0 88 1.2 E 4 6 2 3 1013.7 1013.6 0.0
16/09:30pm 18.4 19.2 15.8 85 1.5 E 6 7 3 4 1013.8 1013.7 0.0
16/09:00pm 18.9 20.9 16.0 83 1.7 CALM 0 0 0 0 1013.7 1013.6 0.0
16/08:30pm 19.3 20.1 15.8 80 2.1 ESE 6 6 3 3 1013.5 1013.4 0.0
16/08:00pm 20.6 21.4 15.8 74 2.9 ESE 6 7 3 4 1013.2 1013.1 0.0
16/07:30pm 21.4 22.5 15.5 69 3.5 ESE 4 6 2 3 1012.9 1012.8 0.0

Other Formats:

Comma delimited format used in spreadsheet applications
http://www.bom.gov.au/fwo/IDD60801/IDD60801.94153.axf

JavaScript Object Notation format (JSON) in row-major order
http://www.bom.gov.au/fwo/IDD60801/IDD60801.94153.json